sensor_id;sensor_type;location;lat;lon;timestamp;pressure;altitude;pressure_sealevel;temperature;humidity
29359;BME280;16347;53.232;6.556;2022-08-03T00:00:34;101413.47;;;23.29;62.38
29359;BME280;16347;53.232;6.556;2022-08-03T00:03:02;101412.31;;;23.43;62.21
29359;BME280;16347;53.232;6.556;2022-08-03T00:05:31;101413.75;;;23.21;62.40
29359;BME280;16347;53.232;6.556;2022-08-03T00:07:59;101412.03;;;23.27;62.89
29359;BME280;16347;53.232;6.556;2022-08-03T00:10:29;101407.34;;;23.21;63.02
29359;BME280;16347;53.232;6.556;2022-08-03T00:12:58;101403.06;;;23.25;62.56
29359;BME280;16347;53.232;6.556;2022-08-03T00:15:30;101402.50;;;23.16;63.15
29359;BME280;16347;53.232;6.556;2022-08-03T00:18:02;101403.72;;;23.20;62.70
29359;BME280;16347;53.232;6.556;2022-08-03T00:20:36;101408.59;;;23.25;62.82
29359;BME280;16347;53.232;6.556;2022-08-03T00:23:05;101402.38;;;23.29;62.55
29359;BME280;16347;53.232;6.556;2022-08-03T00:25:36;101406.13;;;23.17;62.82
29359;BME280;16347;53.232;6.556;2022-08-03T00:28:05;101410.13;;;23.21;63.00
29359;BME280;16347;53.232;6.556;2022-08-03T00:30:36;101408.59;;;23.25;62.58
29359;BME280;16347;53.232;6.556;2022-08-03T00:33:05;101411.63;;;23.23;63.20
29359;BME280;16347;53.232;6.556;2022-08-03T00:35:36;101411.69;;;23.17;63.12
29359;BME280;16347;53.232;6.556;2022-08-03T00:38:16;101405.28;;;23.16;63.27
29359;BME280;16347;53.232;6.556;2022-08-03T00:40:46;101401.41;;;23.17;63.55
29359;BME280;16347;53.232;6.556;2022-08-03T00:43:14;101398.63;;;23.17;63.01
29359;BME280;16347;53.232;6.556;2022-08-03T00:45:43;101400.94;;;23.02;63.13
29359;BME280;16347;53.232;6.556;2022-08-03T00:48:11;101403.13;;;22.93;63.81
29359;BME280;16347;53.232;6.556;2022-08-03T00:50:59;101397.91;;;23.04;63.73
29359;BME280;16347;53.232;6.556;2022-08-03T00:53:27;101398.38;;;23.00;63.89
29359;BME280;16347;53.232;6.556;2022-08-03T00:55:57;101394.25;;;23.10;63.69
29359;BME280;16347;53.232;6.556;2022-08-03T00:58:26;101396.09;;;22.91;64.13
29359;BME280;16347;53.232;6.556;2022-08-03T01:00:54;101396.81;;;22.86;64.13
29359;BME280;16347;53.232;6.556;2022-08-03T01:03:22;101394.03;;;22.86;64.19
29359;BME280;16347;53.232;6.556;2022-08-03T01:05:53;101387.00;;;22.84;63.90
29359;BME280;16347;53.232;6.556;2022-08-03T01:08:43;101395.38;;;23.02;63.84
29359;BME280;16347;53.232;6.556;2022-08-03T01:11:19;101398.94;;;22.84;64.01
29359;BME280;16347;53.232;6.556;2022-08-03T01:13:56;101389.91;;;22.95;63.43
29359;BME280;16347;53.232;6.556;2022-08-03T01:16:47;101387.53;;;23.17;62.80
29359;BME280;16347;53.232;6.556;2022-08-03T01:19:34;101384.91;;;22.79;63.76
29359;BME280;16347;53.232;6.556;2022-08-03T01:22:17;101387.97;;;22.65;63.90
29359;BME280;16347;53.232;6.556;2022-08-03T01:24:59;101378.38;;;22.67;64.15
29359;BME280;16347;53.232;6.556;2022-08-03T01:27:40;101376.72;;;22.66;64.03
29359;BME280;16347;53.232;6.556;2022-08-03T01:30:11;101381.50;;;22.46;64.50
29359;BME280;16347;53.232;6.556;2022-08-03T01:32:43;101387.28;;;22.44;64.34
29359;BME280;16347;53.232;6.556;2022-08-03T01:35:33;101380.72;;;22.39;64.69
29359;BME280;16347;53.232;6.556;2022-08-03T01:38:08;101375.13;;;22.45;63.88
29359;BME280;16347;53.232;6.556;2022-08-03T01:40:39;101373.19;;;22.46;64.27
29359;BME280;16347;53.232;6.556;2022-08-03T01:43:09;101369.69;;;22.57;63.90
29359;BME280;16347;53.232;6.556;2022-08-03T01:45:42;101374.88;;;22.47;64.45
29359;BME280;16347;53.232;6.556;2022-08-03T01:48:11;101372.91;;;22.54;63.92
29359;BME280;16347;53.232;6.556;2022-08-03T01:50:44;101360.47;;;22.63;63.78
29359;BME280;16347;53.232;6.556;2022-08-03T01:53:14;101366.47;;;22.60;63.83
29359;BME280;16347;53.232;6.556;2022-08-03T01:55:45;101359.19;;;22.66;63.19
29359;BME280;16347;53.232;6.556;2022-08-03T01:58:16;101364.78;;;22.59;63.33
29359;BME280;16347;53.232;6.556;2022-08-03T02:00:50;101361.78;;;22.61;63.33
29359;BME280;16347;53.232;6.556;2022-08-03T02:03:24;101362.16;;;22.64;63.00
29359;BME280;16347;53.232;6.556;2022-08-03T02:05:55;101357.19;;;22.48;63.27
29359;BME280;16347;53.232;6.556;2022-08-03T02:08:47;101358.53;;;22.39;63.73
29359;BME280;16347;53.232;6.556;2022-08-03T02:11:19;101357.78;;;22.25;63.90
29359;BME280;16347;53.232;6.556;2022-08-03T02:13:50;101357.69;;;22.38;64.30
29359;BME280;16347;53.232;6.556;2022-08-03T02:16:20;101345.53;;;22.39;64.34
29359;BME280;16347;53.232;6.556;2022-08-03T02:18:49;101354.22;;;22.43;64.12
29359;BME280;16347;53.232;6.556;2022-08-03T02:21:18;101347.09;;;22.29;64.44
29359;BME280;16347;53.232;6.556;2022-08-03T02:24:08;101349.19;;;22.33;63.74
29359;BME280;16347;53.232;6.556;2022-08-03T02:26:38;101347.56;;;22.26;64.01
29359;BME280;16347;53.232;6.556;2022-08-03T02:29:12;101356.88;;;22.31;64.13
29359;BME280;16347;53.232;6.556;2022-08-03T02:31:47;101350.63;;;22.11;64.85
29359;BME280;16347;53.232;6.556;2022-08-03T02:34:17;101350.63;;;22.11;65.10
29359;BME280;16347;53.232;6.556;2022-08-03T02:36:49;101346.81;;;22.06;65.10
29359;BME280;16347;53.232;6.556;2022-08-03T02:39:27;101346.81;;;22.06;64.91
29359;BME280;16347;53.232;6.556;2022-08-03T02:42:00;101354.53;;;21.97;65.33
29359;BME280;16347;53.232;6.556;2022-08-03T02:44:33;101346.66;;;21.94;65.58
29359;BME280;16347;53.232;6.556;2022-08-03T02:47:08;101345.81;;;21.87;66.42
29359;BME280;16347;53.232;6.556;2022-08-03T02:49:40;101344.72;;;22.01;65.74
29359;BME280;16347;53.232;6.556;2022-08-03T02:52:19;101339.63;;;21.98;65.74
29359;BME280;16347;53.232;6.556;2022-08-03T02:54:53;101342.56;;;22.03;65.81
29359;BME280;16347;53.232;6.556;2022-08-03T02:57:24;101337.25;;;22.02;65.88
29359;BME280;16347;53.232;6.556;2022-08-03T02:59:57;101336.09;;;22.16;65.18
29359;BME280;16347;53.232;6.556;2022-08-03T03:02:31;101329.88;;;22.20;64.98
29359;BME280;16347;53.232;6.556;2022-08-03T03:05:00;101328.63;;;22.16;65.03
29359;BME280;16347;53.232;6.556;2022-08-03T03:07:53;101335.94;;;22.04;65.28
29359;BME280;16347;53.232;6.556;2022-08-03T03:10:24;101331.06;;;21.99;66.13
29359;BME280;16347;53.232;6.556;2022-08-03T03:12:56;101341.28;;;22.06;65.71
29359;BME280;16347;53.232;6.556;2022-08-03T03:15:28;101337.28;;;21.95;65.61
29359;BME280;16347;53.232;6.556;2022-08-03T03:18:02;101334.19;;;22.10;65.29
29359;BME280;16347;53.232;6.556;2022-08-03T03:20:33;101335.75;;;22.06;65.45
29359;BME280;16347;53.232;6.556;2022-08-03T03:23:03;101324.22;;;22.09;65.37
29359;BME280;16347;53.232;6.556;2022-08-03T03:25:33;101334.19;;;22.10;65.04
29359;BME280;16347;53.232;6.556;2022-08-03T03:28:05;101339.13;;;22.08;65.60
29359;BME280;16347;53.232;6.556;2022-08-03T03:30:36;101332.56;;;22.02;65.81
29359;BME280;16347;53.232;6.556;2022-08-03T03:33:07;101337.94;;;21.84;65.47
29359;BME280;16347;53.232;6.556;2022-08-03T03:35:35;101333.25;;;21.91;65.65
29359;BME280;16347;53.232;6.556;2022-08-03T03:38:05;101333.63;;;22.01;65.84
29359;BME280;16347;53.232;6.556;2022-08-03T03:40:34;101331.75;;;21.88;65.72
29359;BME280;16347;53.232;6.556;2022-08-03T03:43:02;101332.19;;;21.92;66.02
29359;BME280;16347;53.232;6.556;2022-08-03T03:45:34;101334.06;;;21.98;65.59
29359;BME280;16347;53.232;6.556;2022-08-03T03:48:03;101338.38;;;21.81;66.32
29359;BME280;16347;53.232;6.556;2022-08-03T03:50:34;101332.28;;;21.72;66.46
29359;BME280;16347;53.232;6.556;2022-08-03T03:53:03;101327.97;;;21.76;66.75
29359;BME280;16347;53.232;6.556;2022-08-03T03:55:35;101324.09;;;21.90;66.34
29359;BME280;16347;53.232;6.556;2022-08-03T03:58:23;101332.84;;;21.81;66.34
29359;BME280;16347;53.232;6.556;2022-08-03T04:00:51;101332.41;;;21.84;66.15
29359;BME280;16347;53.232;6.556;2022-08-03T04:03:19;101336.44;;;21.88;66.14
29359;BME280;16347;53.232;6.556;2022-08-03T04:05:49;101329.84;;;21.89;66.28
29359;BME280;16347;53.232;6.556;2022-08-03T04:08:35;101333.78;;;21.68;66.99
29359;BME280;16347;53.232;6.556;2022-08-03T04:11:23;101333.06;;;21.79;66.77
29359;BME280;16347;53.232;6.556;2022-08-03T04:13:58;101331.38;;;21.78;66.21
29359;BME280;16347;53.232;6.556;2022-08-03T04:16:30;101333.72;;;21.81;66.11
29359;BME280;16347;53.232;6.556;2022-08-03T04:19:02;101325.56;;;21.48;67.20
29359;BME280;16347;53.232;6.556;2022-08-03T04:21:34;101334.66;;;21.56;67.68
29359;BME280;16347;53.232;6.556;2022-08-03T04:24:07;101342.09;;;21.62;67.65
29359;BME280;16347;53.232;6.556;2022-08-03T04:26:39;101343.97;;;21.74;66.96
29359;BME280;16347;53.232;6.556;2022-08-03T04:29:09;101351.44;;;21.67;67.25
29359;BME280;16347;53.232;6.556;2022-08-03T04:31:39;101356.34;;;21.65;67.02
29359;BME280;16347;53.232;6.556;2022-08-03T04:34:09;101350.19;;;21.57;67.40
29359;BME280;16347;53.232;6.556;2022-08-03T04:36:44;101351.31;;;21.36;68.61
29359;BME280;16347;53.232;6.556;2022-08-03T04:39:17;101347.00;;;21.53;68.08
29359;BME280;16347;53.232;6.556;2022-08-03T04:41:47;101357.47;;;21.51;68.12
29359;BME280;16347;53.232;6.556;2022-08-03T04:44:35;101354.94;;;21.43;68.13
29359;BME280;16347;53.232;6.556;2022-08-03T04:47:04;101358.75;;;21.48;68.35
29359;BME280;16347;53.232;6.556;2022-08-03T04:49:34;101362.81;;;21.39;68.59
29359;BME280;16347;53.232;6.556;2022-08-03T04:52:06;101358.16;;;21.33;68.84
29359;BME280;16347;53.232;6.556;2022-08-03T04:54:38;101360.91;;;21.40;68.98
29359;BME280;16347;53.232;6.556;2022-08-03T04:57:07;101367.50;;;21.32;69.12
29359;BME280;16347;53.232;6.556;2022-08-03T04:59:35;101371.75;;;21.41;68.81
29359;BME280;16347;53.232;6.556;2022-08-03T05:02:06;101369.00;;;21.41;69.39
29359;BME280;16347;53.232;6.556;2022-08-03T05:04:35;101367.88;;;21.49;68.82
29359;BME280;16347;53.232;6.556;2022-08-03T05:07:05;101361.97;;;21.32;69.18
29359;BME280;16347;53.232;6.556;2022-08-03T05:09:38;101375.19;;;21.30;69.71
29359;BME280;16347;53.232;6.556;2022-08-03T05:12:18;101365.00;;;21.24;69.80
29359;BME280;16347;53.232;6.556;2022-08-03T05:14:46;101373.06;;;21.26;70.17
29359;BME280;16347;53.232;6.556;2022-08-03T05:17:14;101372.84;;;21.34;70.31
29359;BME280;16347;53.232;6.556;2022-08-03T05:19:42;101383.25;;;21.45;69.67
29359;BME280;16347;53.232;6.556;2022-08-03T05:22:12;101378.56;;;21.39;70.16
29359;BME280;16347;53.232;6.556;2022-08-03T05:24:40;101381.28;;;21.45;70.06
29359;BME280;16347;53.232;6.556;2022-08-03T05:27:08;101379.19;;;21.47;70.22
29359;BME280;16347;53.232;6.556;2022-08-03T05:29:43;101379.84;;;21.36;70.51
29359;BME280;16347;53.232;6.556;2022-08-03T05:32:12;101369.81;;;21.48;70.51
29359;BME280;16347;53.232;6.556;2022-08-03T05:34:42;101377.28;;;21.48;69.98
29359;BME280;16347;53.232;6.556;2022-08-03T05:37:18;101379.81;;;21.49;70.34
29359;BME280;16347;53.232;6.556;2022-08-03T05:39:49;101372.41;;;21.30;70.97
29359;BME280;16347;53.232;6.556;2022-08-03T05:42:19;101374.28;;;21.49;70.62
29359;BME280;16347;53.232;6.556;2022-08-03T05:44:48;101372.19;;;21.38;70.36
29359;BME280;16347;53.232;6.556;2022-08-03T05:47:23;101367.69;;;21.51;70.40
29359;BME280;16347;53.232;6.556;2022-08-03T05:49:56;101367.69;;;21.44;70.60
29359;BME280;16347;53.232;6.556;2022-08-03T05:52:27;101367.88;;;21.56;70.49
29359;BME280;16347;53.232;6.556;2022-08-03T05:54:56;101359.34;;;21.57;70.31
29359;BME280;16347;53.232;6.556;2022-08-03T05:57:27;101366.81;;;21.57;70.62
29359;BME280;16347;53.232;6.556;2022-08-03T05:59:57;101372.56;;;21.62;70.45
29359;BME280;16347;53.232;6.556;2022-08-03T06:02:26;101368.91;;;21.68;69.99
29359;BME280;16347;53.232;6.556;2022-08-03T06:04:57;101371.59;;;21.81;70.22
29359;BME280;16347;53.232;6.556;2022-08-03T06:07:29;101373.31;;;21.82;70.20
29359;BME280;16347;53.232;6.556;2022-08-03T06:10:02;101378.41;;;21.85;70.29
29359;BME280;16347;53.232;6.556;2022-08-03T06:12:54;101379.50;;;21.77;70.26
29359;BME280;16347;53.232;6.556;2022-08-03T06:15:23;101383.31;;;21.83;70.66
29359;BME280;16347;53.232;6.556;2022-08-03T06:17:55;101378.63;;;21.83;70.66
29359;BME280;16347;53.232;6.556;2022-08-03T06:20:29;101384.16;;;21.90;70.75
29359;BME280;16347;53.232;6.556;2022-08-03T06:23:03;101379.28;;;21.85;70.63
29359;BME280;16347;53.232;6.556;2022-08-03T06:25:42;101383.06;;;21.97;70.94
29359;BME280;16347;53.232;6.556;2022-08-03T06:28:12;101376.69;;;21.97;70.56
29359;BME280;16347;53.232;6.556;2022-08-03T06:31:02;101382.13;;;22.10;70.87
29359;BME280;16347;53.232;6.556;2022-08-03T06:33:33;101379.63;;;22.09;70.12
29359;BME280;16347;53.232;6.556;2022-08-03T06:36:21;101384.28;;;22.08;69.99
29359;BME280;16347;53.232;6.556;2022-08-03T06:38:51;101378.53;;;22.10;70.56
29359;BME280;16347;53.232;6.556;2022-08-03T06:41:22;101371.22;;;22.22;70.14
29359;BME280;16347;53.232;6.556;2022-08-03T06:43:51;101373.94;;;22.28;70.10
29359;BME280;16347;53.232;6.556;2022-08-03T06:46:31;101376.94;;;22.27;70.51
29359;BME280;16347;53.232;6.556;2022-08-03T06:49:02;101375.00;;;22.27;70.23
29359;BME280;16347;53.232;6.556;2022-08-03T06:51:33;101380.97;;;22.31;69.99
29359;BME280;16347;53.232;6.556;2022-08-03T06:54:24;101379.16;;;22.12;70.30
29359;BME280;16347;53.232;6.556;2022-08-03T06:56:54;101376.13;;;22.20;70.66
29359;BME280;16347;53.232;6.556;2022-08-03T06:59:24;101383.06;;;22.35;70.03
29359;BME280;16347;53.232;6.556;2022-08-03T07:02:14;101378.91;;;22.51;69.87
29359;BME280;16347;53.232;6.556;2022-08-03T07:04:46;101386.81;;;22.47;69.89
29359;BME280;16347;53.232;6.556;2022-08-03T07:07:15;101386.97;;;22.59;70.00
29359;BME280;16347;53.232;6.556;2022-08-03T07:09:47;101382.16;;;22.79;69.59
29359;BME280;16347;53.232;6.556;2022-08-03T07:12:26;101384.50;;;23.00;68.95
29359;BME280;16347;53.232;6.556;2022-08-03T07:15:01;101388.84;;;23.15;67.96
29359;BME280;16347;53.232;6.556;2022-08-03T07:17:34;101380.00;;;23.24;67.51
29359;BME280;16347;53.232;6.556;2022-08-03T07:20:05;101385.47;;;23.31;67.14
29359;BME280;16347;53.232;6.556;2022-08-03T07:22:34;101384.13;;;23.40;66.76
29359;BME280;16347;53.232;6.556;2022-08-03T07:25:07;101391.69;;;23.51;66.56
29359;BME280;16347;53.232;6.556;2022-08-03T07:27:39;101387.25;;;23.68;65.94
29359;BME280;16347;53.232;6.556;2022-08-03T07:30:18;101395.91;;;23.60;66.20
29359;BME280;16347;53.232;6.556;2022-08-03T07:32:48;101396.88;;;23.66;65.82
29359;BME280;16347;53.232;6.556;2022-08-03T07:35:16;101393.19;;;23.72;65.72
29359;BME280;16347;53.232;6.556;2022-08-03T07:37:51;101390.78;;;23.75;65.48
29359;BME280;16347;53.232;6.556;2022-08-03T07:40:22;101397.34;;;23.81;65.45
29359;BME280;16347;53.232;6.556;2022-08-03T07:42:56;101398.94;;;23.88;65.40
29359;BME280;16347;53.232;6.556;2022-08-03T07:45:25;101390.88;;;23.87;65.00
29359;BME280;16347;53.232;6.556;2022-08-03T07:47:53;101391.38;;;23.95;65.08
29359;BME280;16347;53.232;6.556;2022-08-03T07:50:21;101390.69;;;24.00;64.92
29359;BME280;16347;53.232;6.556;2022-08-03T07:52:50;101391.69;;;24.06;64.78
29359;BME280;16347;53.232;6.556;2022-08-03T07:55:20;101396.53;;;24.10;64.89
29359;BME280;16347;53.232;6.556;2022-08-03T07:58:00;101394.56;;;24.17;64.49
29359;BME280;16347;53.232;6.556;2022-08-03T08:00:28;101392.22;;;24.14;64.48
29359;BME280;16347;53.232;6.556;2022-08-03T08:02:57;101395.25;;;24.13;64.30
29359;BME280;16347;53.232;6.556;2022-08-03T08:05:25;101404.81;;;24.17;64.50
29359;BME280;16347;53.232;6.556;2022-08-03T08:07:54;101403.97;;;24.16;64.07
29359;BME280;16347;53.232;6.556;2022-08-03T08:10:22;101404.56;;;24.18;64.38
29359;BME280;16347;53.232;6.556;2022-08-03T08:12:50;101409.06;;;24.19;64.38
29359;BME280;16347;53.232;6.556;2022-08-03T08:15:20;101398.78;;;24.20;64.11
29359;BME280;16347;53.232;6.556;2022-08-03T08:17:50;101399.66;;;24.20;64.00
29359;BME280;16347;53.232;6.556;2022-08-03T08:20:21;101404.25;;;24.26;64.28
29359;BME280;16347;53.232;6.556;2022-08-03T08:22:58;101402.72;;;24.30;64.10
29359;BME280;16347;53.232;6.556;2022-08-03T08:25:28;101410.31;;;24.35;64.25
29359;BME280;16347;53.232;6.556;2022-08-03T08:27:56;101413.09;;;24.35;64.24
29359;BME280;16347;53.232;6.556;2022-08-03T08:30:49;101401.28;;;24.39;64.33
29359;BME280;16347;53.232;6.556;2022-08-03T08:33:17;101404.66;;;24.41;64.16
29359;BME280;16347;53.232;6.556;2022-08-03T08:35:51;101412.31;;;24.46;64.04
29359;BME280;16347;53.232;6.556;2022-08-03T08:38:21;101410.97;;;24.48;64.35
29359;BME280;16347;53.232;6.556;2022-08-03T08:40:54;101409.19;;;24.54;64.21
29359;BME280;16347;53.232;6.556;2022-08-03T08:43:27;101416.13;;;24.63;64.23
29359;BME280;16347;53.232;6.556;2022-08-03T08:45:59;101419.13;;;24.62;63.82
29359;BME280;16347;53.232;6.556;2022-08-03T08:48:29;101423.13;;;24.66;63.77
29359;BME280;16347;53.232;6.556;2022-08-03T08:51:01;101422.91;;;24.67;63.79
29359;BME280;16347;53.232;6.556;2022-08-03T08:53:35;101415.53;;;24.73;63.28
29359;BME280;16347;53.232;6.556;2022-08-03T08:56:08;101416.13;;;24.75;63.45
29359;BME280;16347;53.232;6.556;2022-08-03T08:58:43;101422.91;;;24.79;63.41
29359;BME280;16347;53.232;6.556;2022-08-03T09:01:17;101426.47;;;24.86;63.02
29359;BME280;16347;53.232;6.556;2022-08-03T09:03:47;101423.31;;;24.82;63.13
29359;BME280;16347;53.232;6.556;2022-08-03T09:06:17;101427.81;;;24.83;62.83
29359;BME280;16347;53.232;6.556;2022-08-03T09:08:47;101435.69;;;24.86;62.88
29359;BME280;16347;53.232;6.556;2022-08-03T09:11:20;101426.47;;;24.86;62.70
29359;BME280;16347;53.232;6.556;2022-08-03T09:14:10;101426.84;;;24.89;62.68
29359;BME280;16347;53.232;6.556;2022-08-03T09:17:03;101427.22;;;24.93;62.99
29359;BME280;16347;53.232;6.556;2022-08-03T09:20:03;101422.75;;;25.04;62.77
29359;BME280;16347;53.232;6.556;2022-08-03T09:22:50;101419.13;;;25.03;62.88
29359;BME280;16347;53.232;6.556;2022-08-03T09:25:19;101418.06;;;25.04;62.66
29359;BME280;16347;53.232;6.556;2022-08-03T09:27:54;101418.16;;;25.09;62.53
29359;BME280;16347;53.232;6.556;2022-08-03T09:30:25;101422.16;;;25.13;63.08
29359;BME280;16347;53.232;6.556;2022-08-03T09:33:04;101416.13;;;25.16;62.90
29359;BME280;16347;53.232;6.556;2022-08-03T09:35:40;101425.19;;;25.23;62.25
29359;BME280;16347;53.232;6.556;2022-08-03T09:38:25;101423.50;;;25.22;62.60
29359;BME280;16347;53.232;6.556;2022-08-03T09:40:56;101420.22;;;25.25;62.53
29359;BME280;16347;53.232;6.556;2022-08-03T09:43:27;101416.38;;;25.26;62.19
29359;BME280;16347;53.232;6.556;2022-08-03T09:46:15;101415.03;;;25.29;61.89
29359;BME280;16347;53.232;6.556;2022-08-03T09:48:49;101412.88;;;25.31;61.80
29359;BME280;16347;53.232;6.556;2022-08-03T09:51:23;101408.97;;;25.32;61.78
29359;BME280;16347;53.232;6.556;2022-08-03T09:54:26;101415.75;;;25.36;62.08
29359;BME280;16347;53.232;6.556;2022-08-03T09:56:57;101413.22;;;25.34;61.53
29359;BME280;16347;53.232;6.556;2022-08-03T09:59:30;101420.97;;;25.32;61.74
29359;BME280;16347;53.232;6.556;2022-08-03T10:02:01;101418.06;;;25.39;61.42
29359;BME280;16347;53.232;6.556;2022-08-03T10:04:34;101407.03;;;25.44;61.24
29359;BME280;16347;53.232;6.556;2022-08-03T10:07:17;101412.63;;;25.44;61.14
29359;BME280;16347;53.232;6.556;2022-08-03T10:09:55;101414.22;;;25.52;61.25
29359;BME280;16347;53.232;6.556;2022-08-03T10:12:48;101412.34;;;25.45;61.16
29359;BME280;16347;53.232;6.556;2022-08-03T10:15:23;101414.91;;;25.47;60.82
29359;BME280;16347;53.232;6.556;2022-08-03T10:18:14;101409.94;;;25.49;61.38
29359;BME280;16347;53.232;6.556;2022-08-03T10:20:50;101412.63;;;25.56;61.32
29359;BME280;16347;53.232;6.556;2022-08-03T10:23:22;101407.91;;;25.56;60.82
29359;BME280;16347;53.232;6.556;2022-08-03T10:25:57;101405.47;;;25.60;60.69
29359;BME280;16347;53.232;6.556;2022-08-03T10:28:35;101415.63;;;25.66;60.55
29359;BME280;16347;53.232;6.556;2022-08-03T10:31:13;101409.84;;;25.67;60.45
29359;BME280;16347;53.232;6.556;2022-08-03T10:33:47;101418.44;;;25.66;60.69
29359;BME280;16347;53.232;6.556;2022-08-03T10:36:22;101414.44;;;25.73;60.06
29359;BME280;16347;53.232;6.556;2022-08-03T10:38:51;101409.69;;;25.74;60.40
29359;BME280;16347;53.232;6.556;2022-08-03T10:41:24;101405.94;;;25.80;60.68
29359;BME280;16347;53.232;6.556;2022-08-03T10:43:57;101403.63;;;25.88;60.38
29359;BME280;16347;53.232;6.556;2022-08-03T10:46:29;101414.50;;;25.90;60.03
29359;BME280;16347;53.232;6.556;2022-08-03T10:48:58;101407.44;;;25.99;60.10
29359;BME280;16347;53.232;6.556;2022-08-03T10:51:31;101411.09;;;25.99;59.73
29359;BME280;16347;53.232;6.556;2022-08-03T10:54:00;101404.78;;;26.04;59.42
29359;BME280;16347;53.232;6.556;2022-08-03T10:56:40;101398.56;;;26.14;59.96
29359;BME280;16347;53.232;6.556;2022-08-03T11:00:02;101401.00;;;26.10;58.47
29359;BME280;16347;53.232;6.556;2022-08-03T11:03:00;101403.28;;;26.13;58.92
29359;BME280;16347;53.232;6.556;2022-08-03T11:05:34;101403.28;;;26.13;58.24
29359;BME280;16347;53.232;6.556;2022-08-03T11:08:34;101403.28;;;26.25;58.22
29359;BME280;16347;53.232;6.556;2022-08-03T11:11:28;101404.16;;;26.25;57.84
29359;BME280;16347;53.232;6.556;2022-08-03T11:13:59;101392.56;;;26.33;58.10
29359;BME280;16347;53.232;6.556;2022-08-03T11:16:31;101392.50;;;26.28;58.01
29359;BME280;16347;53.232;6.556;2022-08-03T11:19:03;101402.78;;;26.28;57.83
29359;BME280;16347;53.232;6.556;2022-08-03T11:21:52;101397.91;;;26.35;57.24
29359;BME280;16347;53.232;6.556;2022-08-03T11:25:01;101389.56;;;26.35;56.37
29359;BME280;16347;53.232;6.556;2022-08-03T11:27:33;101386.16;;;26.33;56.47
29359;BME280;16347;53.232;6.556;2022-08-03T11:30:07;101386.84;;;26.40;57.20
29359;BME280;16347;53.232;6.556;2022-08-03T11:32:59;101385.59;;;26.47;57.20
29359;BME280;16347;53.232;6.556;2022-08-03T11:35:30;101394.13;;;26.41;56.17
29359;BME280;16347;53.232;6.556;2022-08-03T11:38:08;101391.53;;;26.51;57.08
29359;BME280;16347;53.232;6.556;2022-08-03T11:40:43;101380.72;;;26.55;55.56
29359;BME280;16347;53.232;6.556;2022-08-03T11:43:44;101385.88;;;26.63;56.09
29359;BME280;16347;53.232;6.556;2022-08-03T11:46:15;101384.28;;;26.67;54.81
29359;BME280;16347;53.232;6.556;2022-08-03T11:49:03;101398.06;;;26.73;54.82
29359;BME280;16347;53.232;6.556;2022-08-03T11:51:38;101396.97;;;26.74;55.70
29359;BME280;16347;53.232;6.556;2022-08-03T11:54:10;101390.38;;;26.80;55.61
29359;BME280;16347;53.232;6.556;2022-08-03T11:56:46;101392.00;;;26.93;54.99
29359;BME280;16347;53.232;6.556;2022-08-03T11:59:31;101379.34;;;27.02;54.82
29359;BME280;16347;53.232;6.556;2022-08-03T12:02:05;101396.84;;;27.14;55.06
29359;BME280;16347;53.232;6.556;2022-08-03T12:04:49;101396.59;;;27.16;53.91
29359;BME280;16347;53.232;6.556;2022-08-03T12:07:20;101399.78;;;27.24;54.11
29359;BME280;16347;53.232;6.556;2022-08-03T12:10:11;101396.56;;;27.32;53.16
29359;BME280;16347;53.232;6.556;2022-08-03T12:12:44;101390.00;;;27.43;53.64
29359;BME280;16347;53.232;6.556;2022-08-03T12:15:14;101384.69;;;27.59;53.16
29359;BME280;16347;53.232;6.556;2022-08-03T12:17:44;101389.56;;;27.68;52.80
29359;BME280;16347;53.232;6.556;2022-08-03T12:20:21;101394.78;;;27.81;54.36
29359;BME280;16347;53.232;6.556;2022-08-03T12:23:04;101390.75;;;27.94;52.26
29359;BME280;16347;53.232;6.556;2022-08-03T12:25:34;101391.91;;;27.98;52.91
29359;BME280;16347;53.232;6.556;2022-08-03T12:28:10;101385.91;;;28.06;52.53
29359;BME280;16347;53.232;6.556;2022-08-03T12:31:08;101391.22;;;28.29;52.65
29359;BME280;16347;53.232;6.556;2022-08-03T12:33:55;101389.00;;;28.58;51.81
29359;BME280;16347;53.232;6.556;2022-08-03T12:36:26;101381.88;;;28.72;49.88
29359;BME280;16347;53.232;6.556;2022-08-03T12:38:55;101383.91;;;28.77;48.84
29359;BME280;16347;53.232;6.556;2022-08-03T12:41:28;101392.09;;;28.88;48.72
29359;BME280;16347;53.232;6.556;2022-08-03T12:43:57;101393.81;;;28.94;48.11
29359;BME280;16347;53.232;6.556;2022-08-03T12:46:30;101398.84;;;28.87;47.08
29359;BME280;16347;53.232;6.556;2022-08-03T12:49:00;101392.16;;;28.93;48.27
29359;BME280;16347;53.232;6.556;2022-08-03T12:51:31;101388.28;;;28.99;47.61
29359;BME280;16347;53.232;6.556;2022-08-03T12:54:00;101384.69;;;29.04;47.53
29359;BME280;16347;53.232;6.556;2022-08-03T12:56:28;101394.84;;;29.15;47.42
29359;BME280;16347;53.232;6.556;2022-08-03T12:58:58;101394.91;;;29.20;47.53
29359;BME280;16347;53.232;6.556;2022-08-03T13:01:35;101399.09;;;29.23;47.29
29359;BME280;16347;53.232;6.556;2022-08-03T13:04:28;101395.25;;;29.29;47.76
29359;BME280;16347;53.232;6.556;2022-08-03T13:07:00;101398.34;;;29.27;47.85
29359;BME280;16347;53.232;6.556;2022-08-03T13:09:30;101394.72;;;29.32;47.20
29359;BME280;16347;53.232;6.556;2022-08-03T13:12:09;101387.75;;;29.34;47.31
29359;BME280;16347;53.232;6.556;2022-08-03T13:14:39;101393.41;;;29.44;45.49
29359;BME280;16347;53.232;6.556;2022-08-03T13:17:07;101389.53;;;29.50;45.67
29359;BME280;16347;53.232;6.556;2022-08-03T13:19:36;101402.22;;;29.63;45.92
29359;BME280;16347;53.232;6.556;2022-08-03T13:22:11;101396.19;;;29.86;45.05
29359;BME280;16347;53.232;6.556;2022-08-03T13:24:41;101400.72;;;29.97;44.61
29359;BME280;16347;53.232;6.556;2022-08-03T13:27:09;101410.50;;;29.90;43.68